Time,TemperatureF,DewpointF,PressureIn,WindDirection,WindDirectionDegrees,WindSpeedMPH,WindSpeedGustMPH,Humidity,HourlyPrecipIn,Conditions,Clouds,dailyrainin,SoftwareType,DateUTC
2013-03-29 00:20:00,48.0,32.0,30.05,SSE,157,2.0,5.0,55,0.00,,,0.00,TxWx,2013-03-29 04:20:00,
2013-03-29 00:25:00,48.0,32.0,30.05,South,180,5.0,5.0,55,0.00,,,0.00,TxWx,2013-03-29 04:25:00,
2013-03-29 00:30:00,48.0,32.0,30.05,SSW,202,5.0,8.0,55,0.00,,,0.00,TxWx,2013-03-29 04:30:00,
2013-03-29 00:35:00,47.0,31.0,30.05,South,180,6.0,7.0,55,0.00,,,0.00,TxWx,2013-03-29 04:35:00,
2013-03-29 00:40:00,47.0,31.0,30.05,SSW,202,11.0,11.0,55,0.00,,,0.00,TxWx,2013-03-29 04:40:00,
2013-03-29 00:45:00,47.0,31.0,30.05,SE,135,5.0,7.0,55,0.00,,,0.00,TxWx,2013-03-29 04:45:00,
2013-03-29 00:51:00,47.0,31.0,30.05,South,180,5.0,8.0,55,0.00,,,0.00,TxWx,2013-03-29 04:51:00,
2013-03-29 00:56:00,47.0,30.0,30.05,South,180,8.0,10.0,55,0.00,,,0.00,TxWx,2013-03-29 04:56:00,
2013-03-29 01:03:00,47.0,30.0,30.06,SE,135,6.0,6.0,54,0.00,,,0.00,TxWx,2013-03-29 05:03:00,
2013-03-29 01:08:00,47.0,30.0,30.05,WSW,247,4.0,6.0,55,0.00,,,0.00,TxWx,2013-03-29 05:08:00,
2013-03-29 01:14:00,47.0,30.0,30.06,SSW,202,5.0,7.0,55,0.00,,,0.00,TxWx,2013-03-29 05:14:00,
2013-03-29 01:19:00,47.0,30.0,30.06,SSE,157,5.0,6.0,55,0.00,,,0.00,TxWx,2013-03-29 05:19:00,
2013-03-29 01:24:00,47.0,30.0,30.06,SE,135,6.0,6.0,55,0.00,,,0.00,TxWx,2013-03-29 05:24:00,
2013-03-29 01:30:00,47.0,30.0,30.06,SE,135,4.0,5.0,55,0.00,,,0.00,TxWx,2013-03-29 05:30:00,
2013-03-29 01:36:00,47.0,30.0,30.06,SE,135,8.0,8.0,55,0.00,,,0.00,TxWx,2013-03-29 05:36:00,
2013-03-29 01:41:00,47.0,30.0,30.06,SE,135,3.0,4.0,55,0.00,,,0.00,TxWx,2013-03-29 05:41:00,
2013-03-29 01:47:00,47.0,30.0,30.06,South,180,6.0,7.0,55,0.00,,,0.00,TxWx,2013-03-29 05:47:00,
2013-03-29 01:52:00,47.0,30.0,30.06,South,180,3.0,4.0,55,0.00,,,0.00,TxWx,2013-03-29 05:52:00,
2013-03-29 01:57:00,47.0,31.0,30.06,SSE,157,4.0,6.0,55,0.00,,,0.00,TxWx,2013-03-29 05:57:00,
2013-03-29 02:02:00,46.0,30.0,30.06,South,180,5.0,6.0,55,0.00,,,0.00,TxWx,2013-03-29 06:02:00,
2013-03-29 02:07:00,46.0,30.0,30.06,SSW,202,6.0,6.0,55,0.00,,,0.00,TxWx,2013-03-29 06:07:00,
2013-03-29 02:12:00,46.0,30.0,30.06,South,180,4.0,5.0,56,0.00,,,0.00,TxWx,2013-03-29 06:12:00,
2013-03-29 02:17:00,46.0,30.0,30.06,SSE,157,6.0,7.0,56,0.00,,,0.00,TxWx,2013-03-29 06:17:00,
2013-03-29 02:23:00,46.0,30.0,30.06,South,180,5.0,6.0,56,0.00,,,0.00,TxWx,2013-03-29 06:23:00,
2013-03-29 02:28:00,46.0,30.0,30.06,South,180,4.0,5.0,56,0.00,,,0.00,TxWx,2013-03-29 06:28:00,
2013-03-29 02:33:00,46.0,30.0,30.06,South,180,6.0,6.0,56,0.00,,,0.00,TxWx,2013-03-29 06:33:00,
2013-03-29 02:38:00,46.0,30.0,30.06,South,180,5.0,5.0,56,0.00,,,0.00,TxWx,2013-03-29 06:38:00,
2013-03-29 02:43:00,45.0,29.0,30.06,South,180,4.0,5.0,57,0.00,,,0.00,TxWx,2013-03-29 06:43:00,
2013-03-29 02:49:00,45.0,30.0,30.06,SSW,202,2.0,2.0,57,0.00,,,0.00,TxWx,2013-03-29 06:49:00,
2013-03-29 02:54:00,44.0,29.0,30.06,South,180,4.0,5.0,58,0.00,,,0.00,TxWx,2013-03-29 06:54:00,
2013-03-29 02:59:00,44.0,29.0,30.06,SW,225,4.0,4.0,59,0.00,,,0.00,TxWx,2013-03-29 06:59:00,
2013-03-29 03:05:00,44.0,30.0,30.06,South,180,6.0,6.0,59,0.00,,,0.00,TxWx,2013-03-29 07:05:00,
2013-03-29 03:10:00,44.0,30.0,30.06,South,180,5.0,5.0,59,0.00,,,0.00,TxWx,2013-03-29 07:10:00,
2013-03-29 03:16:00,44.0,29.0,30.06,SW,225,4.0,4.0,59,0.00,,,0.00,TxWx,2013-03-29 07:16:00,
2013-03-29 03:21:00,44.0,29.0,30.06,South,180,2.0,3.0,59,0.00,,,0.00,TxWx,2013-03-29 07:21:00,
2013-03-29 03:27:00,44.0,30.0,30.06,SW,225,3.0,4.0,59,0.00,,,0.00,TxWx,2013-03-29 07:27:00,
2013-03-29 03:32:00,43.0,29.0,30.06,SSW,202,5.0,5.0,60,0.00,,,0.00,TxWx,2013-03-29 07:32:00,
2013-03-29 03:37:00,43.0,29.0,30.06,South,180,6.0,6.0,61,0.00,,,0.00,TxWx,2013-03-29 07:37:00,
2013-03-29 03:42:00,43.0,29.0,30.06,South,180,6.0,6.0,61,0.00,,,0.00,TxWx,2013-03-29 07:42:00,
2013-03-29 03:47:00,43.0,29.0,30.06,South,180,4.0,5.0,61,0.00,,,0.00,TxWx,2013-03-29 07:47:00,
2013-03-29 03:52:00,43.0,29.0,30.06,South,180,4.0,5.0,61,0.00,,,0.00,TxWx,2013-03-29 07:52:00,
2013-03-29 03:57:00,43.0,30.0,30.06,SSW,202,4.0,6.0,62,0.00,,,0.00,TxWx,2013-03-29 07:57:00,
2013-03-29 04:03:00,43.0,30.0,30.06,SSW,202,4.0,6.0,62,0.00,,,0.00,TxWx,2013-03-29 08:03:00,
2013-03-29 04:08:00,43.0,30.0,30.06,ESE,112,4.0,6.0,62,0.00,,,0.00,TxWx,2013-03-29 08:08:00,
2013-03-29 04:13:00,43.0,30.0,30.06,South,180,4.0,5.0,62,0.00,,,0.00,TxWx,2013-03-29 08:13:00,
2013-03-29 04:18:00,43.0,30.0,30.06,South,180,6.0,7.0,62,0.00,,,0.00,TxWx,2013-03-29 08:18:00,
2013-03-29 04:24:00,43.0,30.0,30.06,South,180,8.0,8.0,63,0.00,,,0.00,TxWx,2013-03-29 08:24:00,
2013-03-29 04:29:00,43.0,30.0,30.06,South,180,8.0,8.0,63,0.00,,,0.00,TxWx,2013-03-29 08:29:00,
2013-03-29 04:34:00,43.0,30.0,30.06,South,180,6.0,7.0,62,0.00,,,0.00,TxWx,2013-03-29 08:34:00,
2013-03-29 04:39:00,43.0,30.0,30.06,South,180,6.0,6.0,63,0.00,,,0.00,TxWx,2013-03-29 08:39:00,
2013-03-29 04:44:00,43.0,30.0,30.06,SSE,157,6.0,7.0,63,0.00,,,0.00,TxWx,2013-03-29 08:44:00,
2013-03-29 04:50:00,44.0,31.0,30.06,SSW,202,8.0,8.0,62,0.00,,,0.00,TxWx,2013-03-29 08:50:00,
2013-03-29 04:55:00,44.0,30.0,30.06,South,180,6.0,9.0,61,0.00,,,0.00,TxWx,2013-03-29 08:55:00,
2013-03-29 05:00:00,44.0,30.0,30.06,South,180,6.0,10.0,60,0.00,,,0.00,TxWx,2013-03-29 09:00:00,
2013-03-29 05:05:00,44.0,30.0,30.06,South,180,8.0,10.0,61,0.00,,,0.00,TxWx,2013-03-29 09:05:00,
2013-03-29 05:11:00,44.0,30.0,30.06,SSW,202,10.0,16.0,61,0.00,,,0.00,TxWx,2013-03-29 09:11:00,
2013-03-29 05:16:00,44.0,30.0,30.06,SSW,202,11.0,11.0,61,0.00,,,0.00,TxWx,2013-03-29 09:16:00,
2013-03-29 05:21:00,44.0,30.0,30.06,WSW,247,2.0,5.0,61,0.00,,,0.00,TxWx,2013-03-29 09:21:00,
2013-03-29 05:27:00,44.0,30.0,30.06,South,180,8.0,8.0,61,0.00,,,0.00,TxWx,2013-03-29 09:27:00,
2013-03-29 05:32:00,44.0,30.0,30.06,South,180,6.0,6.0,61,0.00,,,0.00,TxWx,2013-03-29 09:32:00,
2013-03-29 05:37:00,44.0,30.0,30.06,South,180,8.0,8.0,61,0.00,,,0.00,TxWx,2013-03-29 09:37:00,
2013-03-29 05:43:00,43.0,29.0,30.06,SSE,157,6.0,6.0,61,0.00,,,0.00,TxWx,2013-03-29 09:43:00,
2013-03-29 05:48:00,43.0,30.0,30.06,South,180,5.0,6.0,62,0.00,,,0.00,TxWx,2013-03-29 09:48:00,
2013-03-29 05:53:00,43.0,30.0,30.06,South,180,5.0,6.0,63,0.00,,,0.00,TxWx,2013-03-29 09:53:00,
2013-03-29 05:58:00,43.0,30.0,30.06,SE,135,3.0,4.0,63,0.00,,,0.00,TxWx,2013-03-29 09:58:00,
2013-03-29 06:03:00,42.0,29.0,30.06,South,180,6.0,6.0,63,0.00,,,0.00,TxWx,2013-03-29 10:03:00,
2013-03-29 06:08:00,42.0,29.0,30.06,SSE,157,5.0,6.0,64,0.00,,,0.00,TxWx,2013-03-29 10:08:00,
2013-03-29 06:13:00,42.0,29.0,30.06,SSW,202,5.0,7.0,64,0.00,,,0.00,TxWx,2013-03-29 10:13:00,
2013-03-29 06:18:00,42.0,30.0,30.06,South,180,4.0,4.0,64,0.00,,,0.00,TxWx,2013-03-29 10:18:00,
2013-03-29 06:24:00,42.0,30.0,30.06,South,180,5.0,6.0,64,0.00,,,0.00,TxWx,2013-03-29 10:24:00,
2013-03-29 06:29:00,42.0,30.0,30.06,South,180,4.0,5.0,64,0.00,,,0.00,TxWx,2013-03-29 10:29:00,
2013-03-29 06:34:00,42.0,30.0,30.06,South,180,6.0,7.0,64,0.00,,,0.00,TxWx,2013-03-29 10:34:00,
2013-03-29 06:39:00,42.0,30.0,30.06,South,180,8.0,8.0,64,0.00,,,0.00,TxWx,2013-03-29 10:39:00,
2013-03-29 06:45:00,42.0,30.0,30.06,South,180,3.0,5.0,64,0.00,,,0.00,TxWx,2013-03-29 10:45:00,
2013-03-29 06:50:00,42.0,30.0,30.06,South,180,6.0,6.0,64,0.00,,,0.00,TxWx,2013-03-29 10:50:00,
2013-03-29 06:55:00,42.0,30.0,30.07,South,180,5.0,5.0,64,0.00,,,0.00,TxWx,2013-03-29 10:55:00,
2013-03-29 07:00:00,42.0,30.0,30.07,SE,135,3.0,3.0,65,0.00,,,0.00,TxWx,2013-03-29 11:00:00,
2013-03-29 07:05:00,42.0,30.0,30.07,SW,225,2.0,3.0,65,0.00,,,0.00,TxWx,2013-03-29 11:05:00,
2013-03-29 07:11:00,41.0,29.0,30.07,South,180,4.0,4.0,65,0.00,,,0.00,TxWx,2013-03-29 11:11:00,
2013-03-29 07:17:00,42.0,30.0,30.07,South,180,3.0,4.0,65,0.00,,,0.00,TxWx,2013-03-29 11:17:00,
2013-03-29 07:22:00,42.0,30.0,30.07,WNW,292,1.0,2.0,65,0.00,,,0.00,TxWx,2013-03-29 11:22:00,
2013-03-29 07:27:00,42.0,30.0,30.07,SSW,202,4.0,5.0,65,0.00,,,0.00,TxWx,2013-03-29 11:27:00,
2013-03-29 07:32:00,42.0,30.0,30.07,West,270,1.0,2.0,65,0.00,,,0.00,TxWx,2013-03-29 11:32:00,
2013-03-29 07:38:00,43.0,31.0,30.07,SSE,157,5.0,6.0,65,0.00,,,0.00,TxWx,2013-03-29 11:38:00,
2013-03-29 07:43:00,43.0,31.0,30.07,WSW,247,3.0,3.0,64,0.00,,,0.00,TxWx,2013-03-29 11:43:00,
2013-03-29 07:48:00,43.0,30.0,30.07,South,180,4.0,4.0,64,0.00,,,0.00,TxWx,2013-03-29 11:48:00,
2013-03-29 07:53:00,43.0,30.0,30.08,South,180,4.0,4.0,64,0.00,,,0.00,TxWx,2013-03-29 11:53:00,
2013-03-29 07:58:00,44.0,31.0,30.08,SSW,202,2.0,3.0,63,0.00,,,0.00,TxWx,2013-03-29 11:58:00,
2013-03-29 08:03:00,44.0,31.0,30.08,SSE,157,3.0,4.0,63,0.00,,,0.00,TxWx,2013-03-29 12:03:00,
2013-03-29 08:08:00,44.0,31.0,30.08,South,180,5.0,6.0,62,0.00,,,0.00,TxWx,2013-03-29 12:08:00,
2013-03-29 08:14:00,44.0,31.0,30.08,SSE,157,2.0,3.0,62,0.00,,,0.00,TxWx,2013-03-29 12:14:00,
2013-03-29 08:19:00,45.0,33.0,30.07,SSW,202,5.0,5.0,62,0.00,,,0.00,TxWx,2013-03-29 12:19:00,
2013-03-29 08:24:00,45.0,32.0,30.07,South,180,8.0,10.0,61,0.00,,,0.00,TxWx,2013-03-29 12:24:00,
2013-03-29 08:29:00,46.0,33.0,30.07,SSW,202,3.0,4.0,60,0.00,,,0.00,TxWx,2013-03-29 12:29:00,
2013-03-29 08:35:00,46.0,33.0,30.07,SE,135,3.0,3.0,60,0.00,,,0.00,TxWx,2013-03-29 12:35:00,
2013-03-29 08:40:00,46.0,32.0,30.07,South,180,9.0,9.0,59,0.00,,,0.00,TxWx,2013-03-29 12:40:00,
2013-03-29 08:45:00,47.0,33.0,30.07,SSE,157,3.0,3.0,58,0.00,,,0.00,TxWx,2013-03-29 12:45:00,
2013-03-29 08:50:00,47.0,32.0,30.08,SSE,157,6.0,6.0,57,0.00,,,0.00,TxWx,2013-03-29 12:50:00,
2013-03-29 08:56:00,48.0,33.0,30.07,SSE,157,5.0,5.0,56,0.00,,,0.00,TxWx,2013-03-29 12:56:00,
2013-03-29 09:01:00,48.0,33.0,30.07,SE,135,2.0,3.0,55,0.00,,,0.00,TxWx,2013-03-29 13:01:00,
2013-03-29 09:07:00,48.0,32.0,30.08,ESE,112,8.0,11.0,54,0.00,,,0.00,TxWx,2013-03-29 13:07:00,
2013-03-29 09:12:00,48.0,31.0,30.07,SSE,157,6.0,8.0,54,0.00,,,0.00,TxWx,2013-03-29 13:12:00,
2013-03-29 09:18:00,49.0,33.0,30.08,SE,135,5.0,6.0,53,0.00,,,0.00,TxWx,2013-03-29 13:18:00,
2013-03-29 09:23:00,49.0,33.0,30.07,SE,135,5.0,6.0,53,0.00,,,0.00,TxWx,2013-03-29 13:23:00,
2013-03-29 09:28:00,49.0,32.0,30.07,SE,135,5.0,7.0,52,0.00,,,0.00,TxWx,2013-03-29 13:28:00,
2013-03-29 09:33:00,49.0,32.0,30.07,SSE,157,7.0,10.0,52,0.00,,,0.00,TxWx,2013-03-29 13:33:00,
2013-03-29 09:38:00,49.0,32.0,30.07,SSE,157,6.0,6.0,52,0.00,,,0.00,TxWx,2013-03-29 13:38:00,
2013-03-29 09:44:00,49.0,31.0,30.07,SE,135,6.0,10.0,51,0.00,,,0.00,TxWx,2013-03-29 13:44:00,
2013-03-29 09:49:00,50.0,33.0,30.07,SE,135,6.0,6.0,51,0.00,,,0.00,TxWx,2013-03-29 13:49:00,
2013-03-29 09:54:00,50.0,32.0,30.06,SSE,157,7.0,10.0,51,0.00,,,0.00,TxWx,2013-03-29 13:54:00,
2013-03-29 09:59:00,50.0,32.0,30.06,SSE,157,8.0,8.0,51,0.00,,,0.00,TxWx,2013-03-29 13:59:00,
2013-03-29 10:04:00,50.0,32.0,30.06,SSE,157,8.0,11.0,51,0.00,,,0.00,TxWx,2013-03-29 14:04:00,
2013-03-29 10:09:00,51.0,33.0,30.07,East,90,9.0,10.0,50,0.00,,,0.00,TxWx,2013-03-29 14:09:00,
2013-03-29 10:14:00,51.0,33.0,30.07,ESE,112,6.0,14.0,50,0.00,,,0.00,TxWx,2013-03-29 14:14:00,
2013-03-29 10:20:00,51.0,33.0,30.06,East,90,7.0,11.0,50,0.00,,,0.00,TxWx,2013-03-29 14:20:00,
2013-03-29 10:25:00,51.0,32.0,30.06,East,90,8.0,8.0,49,0.00,,,0.00,TxWx,2013-03-29 14:25:00,
2013-03-29 10:30:00,51.0,32.0,30.06,East,90,6.0,7.0,49,0.00,,,0.00,TxWx,2013-03-29 14:30:00,
2013-03-29 10:35:00,51.0,32.0,30.06,ESE,112,8.0,8.0,49,0.00,,,0.00,TxWx,2013-03-29 14:35:00,
2013-03-29 10:40:00,52.0,33.0,30.06,East,90,10.0,11.0,48,0.00,,,0.00,TxWx,2013-03-29 14:40:00,
2013-03-29 10:45:00,52.0,33.0,30.06,SE,135,10.0,13.0,48,0.00,,,0.00,TxWx,2013-03-29 14:45:00,
2013-03-29 10:51:00,52.0,33.0,30.06,SE,135,6.0,6.0,48,0.00,,,0.00,TxWx,2013-03-29 14:51:00,
2013-03-29 10:56:00,51.0,31.0,30.06,SE,135,13.0,15.0,48,0.00,,,0.00,TxWx,2013-03-29 14:56:00,
2013-03-29 11:01:00,52.0,32.0,30.05,South,180,13.0,13.0,47,0.00,,,0.00,TxWx,2013-03-29 15:01:00,
2013-03-29 11:06:00,52.0,32.0,30.06,SE,135,7.0,8.0,47,0.00,,,0.00,TxWx,2013-03-29 15:06:00,
2013-03-29 11:12:00,52.0,32.0,30.06,SE,135,11.0,13.0,47,0.00,,,0.00,TxWx,2013-03-29 15:12:00,
2013-03-29 11:17:00,53.0,33.0,30.05,South,180,6.0,6.0,47,0.00,,,0.00,TxWx,2013-03-29 15:17:00,
2013-03-29 11:22:00,53.0,33.0,30.05,SSW,202,5.0,6.0,47,0.00,,,0.00,TxWx,2013-03-29 15:22:00,
2013-03-29 11:27:00,53.0,33.0,30.05,SSW,202,7.0,7.0,47,0.00,,,0.00,TxWx,2013-03-29 15:27:00,
2013-03-29 11:32:00,53.0,32.0,30.05,East,90,5.0,6.0,46,0.00,,,0.00,TxWx,2013-03-29 15:32:00,
2013-03-29 11:38:00,53.0,32.0,30.05,ESE,112,3.0,6.0,46,0.00,,,0.00,TxWx,2013-03-29 15:38:00,
2013-03-29 11:43:00,53.0,32.0,30.05,ESE,112,8.0,8.0,46,0.00,,,0.00,TxWx,2013-03-29 15:43:00,
2013-03-29 11:48:00,52.0,30.0,30.05,SE,135,10.0,10.0,45,0.00,,,0.00,TxWx,2013-03-29 15:48:00,
2013-03-29 11:53:00,52.0,30.0,30.05,ESE,112,6.0,7.0,45,0.00,,,0.00,TxWx,2013-03-29 15:53:00,
2013-03-29 11:58:00,53.0,31.0,30.04,SE,135,5.0,6.0,45,0.00,,,0.00,TxWx,2013-03-29 15:58:00,
2013-03-29 12:04:00,53.0,30.0,30.04,SE,135,8.0,11.0,44,0.00,,,0.00,TxWx,2013-03-29 16:04:00,
2013-03-29 12:09:00,53.0,31.0,30.04,ESE,112,3.0,4.0,44,0.00,,,0.00,TxWx,2013-03-29 16:09:00,
2013-03-29 12:14:00,53.0,30.0,30.04,ESE,112,15.0,16.0,43,0.00,,,0.00,TxWx,2013-03-29 16:14:00,
2013-03-29 12:19:00,53.0,30.0,30.04,SSE,157,5.0,6.0,43,0.00,,,0.00,TxWx,2013-03-29 16:19:00,
2013-03-29 12:25:00,53.0,30.0,30.04,South,180,10.0,10.0,44,0.00,,,0.00,TxWx,2013-03-29 16:25:00,
2013-03-29 12:30:00,53.0,30.0,30.04,ESE,112,9.0,9.0,44,0.00,,,0.00,TxWx,2013-03-29 16:30:00,
2013-03-29 12:36:00,53.0,29.0,30.04,SE,135,10.0,11.0,42,0.00,,,0.00,TxWx,2013-03-29 16:36:00,
2013-03-29 12:41:00,53.0,30.0,30.04,SSE,157,10.0,11.0,43,0.00,,,0.00,TxWx,2013-03-29 16:41:00,
2013-03-29 12:47:00,53.0,30.0,30.04,ESE,112,14.0,14.0,43,0.00,,,0.00,TxWx,2013-03-29 16:47:00,
2013-03-29 12:52:00,53.0,30.0,30.04,SE,135,7.0,7.0,43,0.00,,,0.00,TxWx,2013-03-29 16:52:00,
2013-03-29 12:57:00,53.0,30.0,30.03,ESE,112,5.0,6.0,43,0.00,,,0.00,TxWx,2013-03-29 16:57:00,
2013-03-29 13:02:00,53.0,30.0,30.03,SSW,202,4.0,5.0,43,0.00,,,0.00,TxWx,2013-03-29 17:02:00,
2013-03-29 13:07:00,53.0,30.0,30.03,ESE,112,8.0,11.0,43,0.00,,,0.00,TxWx,2013-03-29 17:07:00,
2013-03-29 13:12:00,53.0,30.0,30.03,ENE,67,3.0,6.0,43,0.00,,,0.00,TxWx,2013-03-29 17:12:00,
2013-03-29 13:18:00,52.0,29.0,30.03,ESE,112,13.0,16.0,43,0.00,,,0.00,TxWx,2013-03-29 17:18:00,
2013-03-29 13:23:00,52.0,29.0,30.03,SE,135,10.0,11.0,43,0.00,,,0.00,TxWx,2013-03-29 17:23:00,
2013-03-29 13:28:00,52.0,29.0,30.03,SE,135,10.0,10.0,43,0.00,,,0.00,TxWx,2013-03-29 17:28:00,
2013-03-29 13:34:00,52.0,29.0,30.03,SSE,157,7.0,7.0,43,0.00,,,0.00,TxWx,2013-03-29 17:34:00,
2013-03-29 13:39:00,52.0,29.0,30.03,SE,135,10.0,10.0,43,0.00,,,0.00,TxWx,2013-03-29 17:39:00,
2013-03-29 13:45:00,52.0,29.0,30.02,SSE,157,6.0,9.0,42,0.00,,,0.00,TxWx,2013-03-29 17:45:00,
2013-03-29 13:50:00,52.0,29.0,30.02,ESE,112,8.0,9.0,43,0.00,,,0.00,TxWx,2013-03-29 17:50:00,
2013-03-29 13:55:00,52.0,29.0,30.02,ESE,112,9.0,13.0,43,0.00,,,0.00,TxWx,2013-03-29 17:55:00,
2013-03-29 13:59:00,46.0,32.0,30.06,SSE,157,3.0,5.0,59,0.00,,,0.00,TxWx,2013-03-29 17:59:00,
2013-03-29 14:00:00,53.0,29.0,30.02,East,90,8.0,11.0,42,0.00,,,0.00,TxWx,2013-03-29 18:00:00,
2013-03-29 14:01:00,46.0,32.0,30.06,ESE,112,5.0,5.0,59,0.00,,,0.00,TxWx,2013-03-29 18:01:00,
2013-03-29 14:02:00,46.0,32.0,30.06,SSW,202,4.0,5.0,59,0.00,,,0.00,TxWx,2013-03-29 18:02:00,
2013-03-29 14:03:00,46.0,32.0,30.06,SE,135,3.0,5.0,59,0.00,,,0.00,TxWx,2013-03-29 18:03:00,
2013-03-29 14:04:00,46.0,32.0,30.05,SSE,157,4.0,6.0,59,0.00,,,0.00,TxWx,2013-03-29 18:04:00,
2013-03-29 14:05:00,52.0,28.0,30.02,ESE,112,6.0,8.0,42,0.00,,,0.00,TxWx,2013-03-29 18:05:00,
2013-03-29 14:06:00,46.0,32.0,30.06,South,180,3.0,3.0,59,0.00,,,0.00,TxWx,2013-03-29 18:06:00,
2013-03-29 14:07:00,46.0,32.0,30.05,SSE,157,1.0,2.0,59,0.00,,,0.00,TxWx,2013-03-29 18:07:00,
2013-03-29 14:08:00,46.0,32.0,30.05,ESE,112,2.0,3.0,59,0.00,,,0.00,TxWx,2013-03-29 18:08:00,
2013-03-29 14:09:00,46.0,32.0,30.05,South,180,3.0,3.0,59,0.00,,,0.00,TxWx,2013-03-29 18:09:00,
2013-03-29 14:10:00,53.0,29.0,30.02,SE,135,6.0,10.0,42,0.00,,,0.00,TxWx,2013-03-29 18:10:00,
2013-03-29 14:11:00,46.0,32.0,30.05,SE,135,3.0,4.0,59,0.00,,,0.00,TxWx,2013-03-29 18:11:00,
2013-03-29 14:12:00,46.0,32.0,30.05,ESE,112,5.0,5.0,59,0.00,,,0.00,TxWx,2013-03-29 18:12:00,
2013-03-29 14:13:00,46.0,32.0,30.05,East,90,3.0,3.0,59,0.00,,,0.00,TxWx,2013-03-29 18:13:00,
2013-03-29 14:14:00,46.0,32.0,30.05,South,180,3.0,3.0,58,0.00,,,0.00,TxWx,2013-03-29 18:14:00,
2013-03-29 14:15:00,53.0,30.0,30.02,SE,135,2.0,4.0,43,0.00,,,0.00,TxWx,2013-03-29 18:15:00,
2013-03-29 14:16:00,46.0,32.0,30.05,South,180,4.0,4.0,58,0.00,,,0.00,TxWx,2013-03-29 18:16:00,
2013-03-29 14:17:00,46.0,32.0,30.05,South,180,4.0,5.0,58,0.00,,,0.00,TxWx,2013-03-29 18:17:00,
2013-03-29 14:18:00,46.0,32.0,30.05,SSE,157,1.0,3.0,58,0.00,,,0.00,TxWx,2013-03-29 18:18:00,
2013-03-29 14:19:00,46.0,32.0,30.05,South,180,3.0,3.0,58,0.00,,,0.00,TxWx,2013-03-29 18:19:00,
2013-03-29 14:20:00,46.0,32.0,30.06,SE,135,3.0,4.0,58,0.00,,,0.00,TxWx,2013-03-29 18:20:00,
2013-03-29 14:21:00,53.0,30.0,30.02,SSE,157,3.0,4.0,43,0.00,,,0.00,TxWx,2013-03-29 18:21:00,
2013-03-29 14:22:00,46.0,32.0,30.05,West,270,3.0,4.0,58,0.00,,,0.00,TxWx,2013-03-29 18:22:00,
2013-03-29 14:23:00,46.0,32.0,30.05,SSE,157,5.0,6.0,58,0.00,,,0.00,TxWx,2013-03-29 18:23:00,
2013-03-29 14:24:00,46.0,32.0,30.05,SSW,202,5.0,6.0,58,0.00,,,0.00,TxWx,2013-03-29 18:24:00,
2013-03-29 14:25:00,46.0,32.0,30.06,South,180,6.0,7.0,58,0.00,,,0.00,TxWx,2013-03-29 18:25:00,
2013-03-29 14:26:00,53.0,30.0,30.01,East,90,3.0,3.0,43,0.00,,,0.00,TxWx,2013-03-29 18:26:00,
2013-03-29 14:27:00,46.0,31.0,30.05,SSE,157,3.0,3.0,58,0.00,,,0.00,TxWx,2013-03-29 18:27:00,
2013-03-29 14:28:00,46.0,31.0,30.05,SSE,157,3.0,4.0,58,0.00,,,0.00,TxWx,2013-03-29 18:28:00,
2013-03-29 14:29:00,46.0,31.0,30.05,South,180,2.0,3.0,58,0.00,,,0.00,TxWx,2013-03-29 18:29:00,
2013-03-29 14:30:00,46.0,31.0,30.05,East,90,3.0,4.0,58,0.00,,,0.00,TxWx,2013-03-29 18:30:00,
2013-03-29 14:31:00,53.0,29.0,30.01,NE,45,8.0,8.0,42,0.00,,,0.00,TxWx,2013-03-29 18:31:00,
2013-03-29 14:34:00,46.0,31.0,30.05,SSW,202,5.0,5.0,58,0.00,,,0.00,TxWx,2013-03-29 18:34:00,
2013-03-29 14:36:00,46.0,32.0,30.05,South,180,2.0,4.0,58,0.00,,,0.00,TxWx,2013-03-29 18:36:00,
2013-03-29 14:37:00,53.0,29.0,30.01,ESE,112,7.0,7.0,42,0.00,,,0.00,TxWx,2013-03-29 18:37:00,
2013-03-29 14:38:00,46.0,32.0,30.05,South,180,5.0,5.0,58,0.00,,,0.00,TxWx,2013-03-29 18:38:00,
2013-03-29 14:39:00,46.0,32.0,30.05,South,180,7.0,7.0,58,0.00,,,0.00,TxWx,2013-03-29 18:39:00,
2013-03-29 14:41:00,46.0,31.0,30.06,SSW,202,3.0,4.0,58,0.00,,,0.00,TxWx,2013-03-29 18:41:00,
2013-03-29 14:42:00,53.0,29.0,30.01,ESE,112,8.0,8.0,42,0.00,,,0.00,TxWx,2013-03-29 18:42:00,
2013-03-29 14:43:00,46.0,31.0,30.05,South,180,6.0,6.0,58,0.00,,,0.00,TxWx,2013-03-29 18:43:00,
2013-03-29 14:47:00,53.0,29.0,30.01,SSE,157,10.0,12.0,41,0.00,,,0.00,TxWx,2013-03-29 18:47:00,
2013-03-29 14:53:00,53.0,29.0,30.01,SE,135,7.0,9.0,41,0.00,,,0.00,TxWx,2013-03-29 18:53:00,
2013-03-29 14:58:00,53.0,29.0,30.00,ESE,112,10.0,11.0,41,0.00,,,0.00,TxWx,2013-03-29 18:58:00,
2013-03-29 15:03:00,53.0,29.0,30.00,SE,135,6.0,7.0,41,0.00,,,0.00,TxWx,2013-03-29 19:03:00,
2013-03-29 15:09:00,53.0,29.0,30.00,NE,45,5.0,8.0,42,0.00,,,0.00,TxWx,2013-03-29 19:09:00,
2013-03-29 15:11:00,46.0,32.0,30.06,SSE,157,5.0,6.0,58,0.00,,,0.00,TxWx,2013-03-29 19:11:00,
2013-03-29 15:12:00,46.0,32.0,30.06,SSW,202,3.0,3.0,58,0.00,,,0.00,TxWx,2013-03-29 19:12:00,
2013-03-29 15:14:00,53.0,29.0,30.01,SE,135,9.0,11.0,41,0.00,,,0.00,TxWx,2013-03-29 19:14:00,
2013-03-29 15:17:00,46.0,32.0,30.06,SE,135,3.0,4.0,58,0.00,,,0.00,TxWx,2013-03-29 19:17:00,
2013-03-29 15:18:00,46.0,32.0,30.06,SSE,157,5.0,6.0,58,0.00,,,0.00,TxWx,2013-03-29 19:18:00,
2013-03-29 15:19:00,52.0,28.0,30.01,East,90,6.0,6.0,42,0.00,,,0.00,TxWx,2013-03-29 19:19:00,
2013-03-29 15:24:00,52.0,29.0,30.01,SE,135,4.0,8.0,42,0.00,,,0.00,TxWx,2013-03-29 19:24:00,
2013-03-29 15:29:00,52.0,28.0,30.01,East,90,8.0,8.0,42,0.00,,,0.00,TxWx,2013-03-29 19:29:00,
2013-03-29 15:34:00,52.0,28.0,30.00,SE,135,5.0,5.0,42,0.00,,,0.00,TxWx,2013-03-29 19:34:00,
2013-03-29 15:39:00,52.0,29.0,30.01,East,90,11.0,13.0,43,0.00,,,0.00,TxWx,2013-03-29 19:39:00,
2013-03-29 15:44:00,52.0,29.0,30.01,East,90,14.0,15.0,43,0.00,,,0.00,TxWx,2013-03-29 19:44:00,
2013-03-29 15:46:00,46.0,32.0,30.05,ESE,112,6.0,11.0,58,0.00,,,0.00,TxWx,2013-03-29 19:46:00,
2013-03-29 15:50:00,52.0,29.0,30.01,ENE,67,5.0,7.0,44,0.00,,,0.00,TxWx,2013-03-29 19:50:00,
2013-03-29 15:55:00,52.0,29.0,30.01,South,180,10.0,13.0,43,0.00,,,0.00,TxWx,2013-03-29 19:55:00,
2013-03-29 16:00:00,51.0,29.0,30.01,ESE,112,7.0,10.0,44,0.00,,,0.00,TxWx,2013-03-29 20:00:00,
2013-03-29 16:05:00,51.0,29.0,30.01,East,90,6.0,8.0,44,0.00,,,0.00,TxWx,2013-03-29 20:05:00,
2013-03-29 16:06:00,45.0,31.0,30.05,SSW,202,3.0,4.0,59,0.00,,,0.00,TxWx,2013-03-29 20:06:00,
2013-03-29 16:10:00,51.0,29.0,30.01,NE,45,5.0,6.0,44,0.00,,,0.00,TxWx,2013-03-29 20:10:00,
2013-03-29 16:16:00,51.0,29.0,30.01,NE,45,8.0,9.0,44,0.00,,,0.00,TxWx,2013-03-29 20:16:00,
2013-03-29 16:21:00,51.0,29.0,30.01,SE,135,12.0,12.0,45,0.00,,,0.00,TxWx,2013-03-29 20:21:00,
2013-03-29 16:26:00,51.0,29.0,30.01,East,90,4.0,5.0,45,0.00,,,0.00,TxWx,2013-03-29 20:26:00,
2013-03-29 16:32:00,51.0,29.0,30.01,SE,135,7.0,10.0,45,0.00,,,0.00,TxWx,2013-03-29 20:32:00,
2013-03-29 16:37:00,51.0,30.0,30.01,East,90,9.0,9.0,46,0.00,,,0.00,TxWx,2013-03-29 20:37:00,
2013-03-29 16:42:00,51.0,30.0,30.01,East,90,9.0,14.0,46,0.00,,,0.00,TxWx,2013-03-29 20:42:00,
2013-03-29 16:47:00,51.0,30.0,30.01,SSE,157,11.0,12.0,47,0.00,,,0.00,TxWx,2013-03-29 20:47:00,
2013-03-29 16:52:00,51.0,30.0,30.01,NE,45,4.0,5.0,47,0.00,,,0.00,TxWx,2013-03-29 20:52:00,
2013-03-29 16:58:00,51.0,30.0,30.01,SE,135,5.0,8.0,47,0.00,,,0.00,TxWx,2013-03-29 20:58:00,
2013-03-29 17:03:00,51.0,30.0,30.01,NE,45,3.0,4.0,47,0.00,,,0.00,TxWx,2013-03-29 21:03:00,
2013-03-29 17:08:00,50.0,30.0,30.01,ESE,112,12.0,12.0,48,0.00,,,0.00,TxWx,2013-03-29 21:08:00,
2013-03-29 17:13:00,50.0,30.0,30.02,ENE,67,8.0,8.0,48,0.00,,,0.00,TxWx,2013-03-29 21:13:00,
2013-03-29 17:19:00,50.0,30.0,30.02,SE,135,6.0,10.0,48,0.00,,,0.00,TxWx,2013-03-29 21:19:00,
2013-03-29 17:24:00,50.0,30.0,30.02,SE,135,5.0,7.0,49,0.00,,,0.00,TxWx,2013-03-29 21:24:00,
2013-03-29 17:29:00,50.0,30.0,30.02,SE,135,4.0,4.0,49,0.00,,,0.00,TxWx,2013-03-29 21:29:00,
2013-03-29 17:34:00,50.0,30.0,30.02,ENE,67,1.0,2.0,49,0.00,,,0.00,TxWx,2013-03-29 21:34:00,
2013-03-29 17:39:00,50.0,30.0,30.02,ESE,112,6.0,7.0,49,0.00,,,0.00,TxWx,2013-03-29 21:39:00,
2013-03-29 17:45:00,50.0,30.0,30.02,East,90,8.0,8.0,49,0.00,,,0.00,TxWx,2013-03-29 21:45:00,
2013-03-29 17:50:00,50.0,31.0,30.02,SE,135,3.0,5.0,49,0.00,,,0.00,TxWx,2013-03-29 21:50:00,
2013-03-29 17:55:00,50.0,30.0,30.02,ESE,112,12.0,12.0,49,0.00,,,0.00,TxWx,2013-03-29 21:55:00,
2013-03-29 18:00:00,50.0,30.0,30.02,ENE,67,11.0,11.0,49,0.00,,,0.00,TxWx,2013-03-29 22:00:00,
2013-03-29 18:05:00,50.0,31.0,30.02,East,90,8.0,13.0,49,0.00,,,0.00,TxWx,2013-03-29 22:05:00,
2013-03-29 18:11:00,50.0,30.0,30.02,East,90,4.0,6.0,49,0.00,,,0.00,TxWx,2013-03-29 22:11:00,
2013-03-29 18:16:00,50.0,30.0,30.02,SE,135,2.0,2.0,49,0.00,,,0.00,TxWx,2013-03-29 22:16:00,
2013-03-29 18:22:00,50.0,30.0,30.02,SSE,157,5.0,5.0,49,0.00,,,0.00,TxWx,2013-03-29 22:22:00,
2013-03-29 18:27:00,50.0,31.0,30.02,ENE,67,3.0,4.0,49,0.00,,,0.00,TxWx,2013-03-29 22:27:00,
2013-03-29 18:32:00,50.0,31.0,30.03,East,90,8.0,8.0,49,0.00,,,0.00,TxWx,2013-03-29 22:32:00,
2013-03-29 18:37:00,50.0,31.0,30.03,ESE,112,3.0,5.0,50,0.00,,,0.00,TxWx,2013-03-29 22:37:00,
2013-03-29 18:42:00,50.0,31.0,30.03,ESE,112,6.0,6.0,50,0.00,,,0.00,TxWx,2013-03-29 22:42:00,
2013-03-29 18:47:00,50.0,31.0,30.03,SE,135,5.0,5.0,50,0.00,,,0.00,TxWx,2013-03-29 22:47:00,
2013-03-29 18:52:00,50.0,31.0,30.03,SE,135,4.0,5.0,50,0.00,,,0.00,TxWx,2013-03-29 22:52:00,
2013-03-29 18:58:00,50.0,31.0,30.03,East,90,5.0,5.0,50,0.00,,,0.00,TxWx,2013-03-29 22:58:00,
2013-03-29 19:03:00,50.0,31.0,30.03,SSE,157,4.0,5.0,50,0.00,,,0.00,TxWx,2013-03-29 23:03:00,
2013-03-29 19:08:00,50.0,31.0,30.03,SE,135,4.0,5.0,50,0.00,,,0.00,TxWx,2013-03-29 23:08:00,
2013-03-29 19:13:00,50.0,31.0,30.03,SE,135,1.0,2.0,50,0.00,,,0.00,TxWx,2013-03-29 23:13:00,
2013-03-29 19:18:00,50.0,31.0,30.03,SSE,157,2.0,3.0,50,0.00,,,0.00,TxWx,2013-03-29 23:18:00,
2013-03-29 19:24:00,50.0,31.0,30.03,SSE,157,4.0,5.0,50,0.00,,,0.00,TxWx,2013-03-29 23:24:00,
2013-03-29 19:29:00,50.0,32.0,30.03,SSE,157,8.0,8.0,50,0.00,,,0.00,TxWx,2013-03-29 23:29:00,
2013-03-29 19:34:00,49.0,30.0,30.03,East,90,5.0,7.0,50,0.00,,,0.00,TxWx,2013-03-29 23:34:00,
2013-03-29 19:35:00,36.0,27.0,30.06,NW,315,1.0,1.0,74,0.00,,,0.00,TxWx,2013-03-29 23:35:00,
2013-03-29 19:39:00,49.0,30.0,30.03,SE,135,5.0,6.0,50,0.00,,,0.00,TxWx,2013-03-29 23:39:00,
2013-03-29 19:44:00,49.0,30.0,30.03,SE,135,2.0,3.0,50,0.00,,,0.00,TxWx,2013-03-29 23:44:00,
2013-03-29 19:50:00,49.0,30.0,30.04,SSE,157,3.0,4.0,51,0.00,,,0.00,TxWx,2013-03-29 23:50:00,
2013-03-29 19:53:00,35.0,27.0,30.06,NNE,22,1.0,1.0,75,0.00,,,0.00,TxWx,2013-03-29 23:53:00,
2013-03-29 19:55:00,49.0,30.0,30.04,South,180,3.0,3.0,51,0.00,,,0.00,TxWx,2013-03-29 23:55:00,
2013-03-29 19:56:00,35.0,27.0,30.06,WNW,292,1.0,1.0,75,0.00,,,0.00,TxWx,2013-03-29 23:56:00,
2013-03-29 19:57:00,35.0,27.0,30.06,West,270,1.0,1.0,75,0.00,,,0.00,TxWx,2013-03-29 23:57:00,
2013-03-29 20:00:00,49.0,31.0,30.04,SE,135,5.0,6.0,51,0.00,,,0.00,TxWx,2013-03-30 00:00:00,
2013-03-29 20:02:00,36.0,28.0,30.06,WNW,292,0.0,1.0,76,0.00,,,0.00,TxWx,2013-03-30 00:02:00,
2013-03-29 20:04:00,36.0,28.0,30.06,NE,45,1.0,2.0,76,0.00,,,0.00,TxWx,2013-03-30 00:04:00,
2013-03-29 20:05:00,49.0,31.0,30.04,East,90,6.0,8.0,52,0.00,,,0.00,TxWx,2013-03-30 00:05:00,
2013-03-29 20:10:00,49.0,32.0,30.04,SE,135,2.0,3.0,52,0.00,,,0.00,TxWx,2013-03-30 00:10:00,
2013-03-29 20:11:00,36.0,28.0,30.06,NNE,22,0.0,0.0,76,0.00,,,0.00,TxWx,2013-03-30 00:11:00,
2013-03-29 20:12:00,36.0,28.0,30.06,NNW,337,0.0,0.0,76,0.00,,,0.00,TxWx,2013-03-30 00:12:00,
2013-03-29 20:16:00,49.0,32.0,30.04,SSE,157,3.0,5.0,53,0.00,,,0.00,TxWx,2013-03-30 00:16:00,
2013-03-29 20:18:00,36.0,28.0,30.07,NNE,22,1.0,1.0,76,0.00,,,0.00,TxWx,2013-03-30 00:18:00,
2013-03-29 20:19:00,35.0,27.0,30.07,NNE,22,1.0,1.0,76,0.00,,,0.00,TxWx,2013-03-30 00:19:00,
2013-03-29 20:22:00,49.0,32.0,30.04,ESE,112,5.0,6.0,53,0.00,,,0.00,TxWx,2013-03-30 00:22:00,
2013-03-29 20:26:00,35.0,27.0,30.07,NE,45,1.0,1.0,77,0.00,,,0.00,TxWx,2013-03-30 00:26:00,
2013-03-29 20:27:00,49.0,33.0,30.05,SE,135,6.0,10.0,53,0.00,,,0.00,TxWx,2013-03-30 00:27:00,
2013-03-29 20:31:00,35.0,27.0,30.07,NNW,337,0.0,0.0,77,0.00,,,0.00,TxWx,2013-03-30 00:31:00,
2013-03-29 20:32:00,48.0,31.0,30.05,ESE,112,3.0,5.0,54,0.00,,,0.00,TxWx,2013-03-30 00:32:00,
2013-03-29 20:36:00,34.0,27.0,30.07,NNE,22,0.0,0.0,77,0.00,,,0.00,TxWx,2013-03-30 00:36:00,
2013-03-29 20:37:00,48.0,32.0,30.05,SE,135,6.0,6.0,54,0.00,,,0.00,TxWx,2013-03-30 00:37:00,
2013-03-29 20:42:00,48.0,32.0,30.05,SSE,157,8.0,9.0,54,0.00,,,0.00,TxWx,2013-03-30 00:42:00,
2013-03-29 20:48:00,48.0,32.0,30.05,SSE,157,5.0,5.0,55,0.00,,,0.00,TxWx,2013-03-30 00:48:00,
2013-03-29 20:53:00,48.0,32.0,30.05,ESE,112,3.0,5.0,55,0.00,,,0.00,TxWx,2013-03-30 00:53:00,
2013-03-29 20:55:00,34.0,27.0,30.08,NNW,337,1.0,1.0,78,0.00,,,0.00,TxWx,2013-03-30 00:55:00,
2013-03-29 20:56:00,34.0,27.0,30.08,NW,315,1.0,1.0,78,0.00,,,0.00,TxWx,2013-03-30 00:56:00,
2013-03-29 20:57:00,34.0,27.0,30.08,NW,315,1.0,1.0,78,0.00,,,0.00,TxWx,2013-03-30 00:57:00,
2013-03-29 20:58:00,48.0,33.0,30.05,SSE,157,4.0,5.0,55,0.00,,,0.00,TxWx,2013-03-30 00:58:00,
2013-03-29 21:03:00,48.0,33.0,30.05,SE,135,3.0,5.0,55,0.00,,,0.00,TxWx,2013-03-30 01:03:00,
2013-03-29 21:09:00,48.0,33.0,30.05,South,180,5.0,6.0,56,0.00,,,0.00,TxWx,2013-03-30 01:09:00,
2013-03-29 21:14:00,47.0,32.0,30.05,SSE,157,6.0,6.0,56,0.00,,,0.00,TxWx,2013-03-30 01:14:00,
2013-03-29 21:19:00,47.0,32.0,30.06,South,180,6.0,7.0,57,0.00,,,0.00,TxWx,2013-03-30 01:19:00,
2013-03-29 21:25:00,47.0,32.0,30.06,ENE,67,3.0,4.0,57,0.00,,,0.00,TxWx,2013-03-30 01:25:00,
2013-03-29 21:30:00,47.0,32.0,30.06,SE,135,4.0,4.0,57,0.00,,,0.00,TxWx,2013-03-30 01:30:00,
2013-03-29 21:35:00,47.0,33.0,30.06,SSE,157,4.0,6.0,57,0.00,,,0.00,TxWx,2013-03-30 01:35:00,
2013-03-29 21:40:00,47.0,33.0,30.06,South,180,4.0,5.0,57,0.00,,,0.00,TxWx,2013-03-30 01:40:00,
2013-03-29 21:46:00,47.0,33.0,30.06,South,180,3.0,5.0,58,0.00,,,0.00,TxWx,2013-03-30 01:46:00,
2013-03-29 21:51:00,46.0,32.0,30.06,SE,135,3.0,4.0,58,0.00,,,0.00,TxWx,2013-03-30 01:51:00,
2013-03-29 21:56:00,46.0,32.0,30.06,SE,135,3.0,3.0,58,0.00,,,0.00,TxWx,2013-03-30 01:56:00,
2013-03-29 22:02:00,46.0,32.0,30.06,SE,135,3.0,5.0,58,0.00,,,0.00,TxWx,2013-03-30 02:02:00,
2013-03-29 22:07:00,46.0,32.0,30.06,South,180,3.0,3.0,59,0.00,,,0.00,TxWx,2013-03-30 02:07:00,
2013-03-29 22:13:00,46.0,32.0,30.06,SSE,157,1.0,1.0,59,0.00,,,0.00,TxWx,2013-03-30 02:13:00,
2013-03-29 22:18:00,46.0,32.0,30.06,ESE,112,1.0,1.0,59,0.00,,,0.00,TxWx,2013-03-30 02:18:00,
2013-03-29 22:23:00,46.0,33.0,30.06,SE,135,3.0,3.0,60,0.00,,,0.00,TxWx,2013-03-30 02:23:00,
2013-03-29 22:28:00,46.0,33.0,30.06,ESE,112,3.0,3.0,60,0.00,,,0.00,TxWx,2013-03-30 02:28:00,
2013-03-29 22:33:00,46.0,33.0,30.06,SE,135,2.0,2.0,60,0.00,,,0.00,TxWx,2013-03-30 02:33:00,
2013-03-29 22:39:00,46.0,33.0,30.06,ESE,112,2.0,3.0,60,0.00,,,0.00,TxWx,2013-03-30 02:39:00,
2013-03-29 22:44:00,46.0,33.0,30.06,South,180,1.0,2.0,60,0.00,,,0.00,TxWx,2013-03-30 02:44:00,
2013-03-29 22:49:00,46.0,33.0,30.06,SSW,202,4.0,4.0,60,0.00,,,0.00,TxWx,2013-03-30 02:49:00,
2013-03-29 22:54:00,46.0,33.0,30.06,South,180,6.0,6.0,61,0.00,,,0.00,TxWx,2013-03-30 02:54:00,
2013-03-29 23:00:00,46.0,33.0,30.06,SW,225,5.0,5.0,60,0.00,,,0.00,TxWx,2013-03-30 03:00:00,
2013-03-29 23:05:00,46.0,33.0,30.06,SE,135,4.0,5.0,60,0.00,,,0.00,TxWx,2013-03-30 03:05:00,
2013-03-29 23:10:00,46.0,33.0,30.06,SSE,157,5.0,5.0,60,0.00,,,0.00,TxWx,2013-03-30 03:10:00,
2013-03-29 23:15:00,46.0,33.0,30.06,South,180,2.0,3.0,60,0.00,,,0.00,TxWx,2013-03-30 03:15:00,
2013-03-29 23:20:00,46.0,33.0,30.06,South,180,5.0,5.0,60,0.00,,,0.00,TxWx,2013-03-30 03:20:00,
2013-03-29 23:25:00,46.0,33.0,30.06,South,180,1.0,1.0,60,0.00,,,0.00,TxWx,2013-03-30 03:25:00,
2013-03-29 23:30:00,46.0,33.0,30.06,SSE,157,1.0,3.0,60,0.00,,,0.00,TxWx,2013-03-30 03:30:00,
2013-03-29 23:35:00,46.0,33.0,30.06,East,90,3.0,4.0,60,0.00,,,0.00,TxWx,2013-03-30 03:35:00,
2013-03-29 23:40:00,46.0,33.0,30.06,SSE,157,3.0,4.0,60,0.00,,,0.00,TxWx,2013-03-30 03:40:00,
2013-03-29 23:45:00,46.0,33.0,30.06,SSE,157,5.0,5.0,60,0.00,,,0.00,TxWx,2013-03-30 03:45:00,
2013-03-29 23:51:00,46.0,32.0,30.06,South,180,5.0,5.0,59,0.00,,,0.00,TxWx,2013-03-30 03:51:00,
2013-03-29 23:56:00,46.0,32.0,30.06,South,180,5.0,5.0,59,0.00,,,0.00,TxWx,2013-03-30 03:56:00,